Kvitbjoern — LM9158 — position and weather

sailwx.info

Track history (hours):
 
Tides and Currents Weather Stations Pressure Air Temp Water Temp Dewpoint Dewpoint Depression Visibility Wind Speed Wind Dir Waves Ship Positions

Kvitbjoern

Last reported at 2017-Feb-22 14:32 UTC. Time now 2017-Feb-25 02:23 UTC.
Position N 66°22' E 012°21'.

Length 10 m.

Type: Fishing. MMSI: 257454420.

Date/timePositionNaut miles runAvg speedWind from/ knotsBaromVisibWave heightAir tempDewpointWater temp
2017-Feb-22 14:32N 66°22' E 012°21'0 0.0
2017-Feb-22 13:32N 66°22' E 012°21'0 0.0
2017-Feb-22 12:32N 66°22' E 012°21'0 0.1
2017-Feb-22 11:33N 66°22' E 012°22'0 0.1
2017-Feb-22 08:33N 66°22' E 012°22'0 0.0
2017-Feb-22 00:23N 66°22' E 012°21'0 0.0
2017-Feb-21 23:29N 66°22' E 012°21'0 0.0
2017-Feb-21 22:29N 66°22' E 012°21'0 0.0
2017-Feb-21 21:29N 66°22' E 012°21'0 0.0
2017-Feb-21 20:29N 66°22' E 012°21'0 0.0
2017-Feb-21 19:29N 66°22' E 012°21'0 0.0
2017-Feb-21 18:29N 66°22' E 012°21'0 0.0
2017-Feb-21 17:29N 66°22' E 012°21'0 0.0
2017-Feb-21 16:29N 66°22' E 012°21'3 0.4
2017-Feb-21 09:32N 66°23' E 012°28'1 0.6
2017-Feb-21 07:06N 66°24' E 012°29'1 2.1
2017-Feb-21 06:31N 66°23' E 012°27'2 0.2
2017-Feb-20 19:04N 66°22' E 012°21'0 0.0
2017-Feb-20 18:28N 66°22' E 012°21'0 0.0
2017-Feb-20 17:28N 66°22' E 012°21'0 0.0
2017-Feb-20 16:28N 66°22' E 012°21'1 0.7
2017-Feb-20 15:32N 66°22' E 012°23'1 0.6
2017-Feb-20 14:32N 66°22' E 012°23'1 0.8
2017-Feb-20 13:32N 66°22' E 012°25'1 0.8
2017-Feb-20 12:10N 66°21' E 012°24'1 0.4
2017-Feb-20 09:04N 66°22' E 012°23'1 1.7
2017-Feb-20 08:32N 66°22' E 012°25'1 0.7
2017-Feb-20 06:33N 66°22' E 012°22'0 0.0
2017-Feb-18 17:25N 66°22' E 012°21'0 0.0
2017-Feb-18 16:31N 66°22' E 012°21'  
Track history (hours):
 
Tides and Currents Weather Stations Pressure Air Temp Water Temp Dewpoint Dewpoint Depression Visibility Wind Speed Wind Dir Waves Ship Positions

Kvitbjoern

Last reported at 2017-Feb-22 14:32 UTC. Time now 2017-Feb-25 02:23 UTC.
Position N 66°22' E 012°21'.

Length 10 m.

Type: Fishing. MMSI: 257454420.

Date/timePositionNaut miles runAvg speedWind from/ knotsBaromVisibWave heightAir tempDewpointWater temp
2017-Feb-22 14:32N 66°22' E 012°21'0 0.0
2017-Feb-22 13:32N 66°22' E 012°21'0 0.0
2017-Feb-22 12:32N 66°22' E 012°21'0 0.1
2017-Feb-22 11:33N 66°22' E 012°22'0 0.1
2017-Feb-22 08:33N 66°22' E 012°22'0 0.0
2017-Feb-22 00:23N 66°22' E 012°21'0 0.0
2017-Feb-21 23:29N 66°22' E 012°21'0 0.0
2017-Feb-21 22:29N 66°22' E 012°21'0 0.0
2017-Feb-21 21:29N 66°22' E 012°21'0 0.0
2017-Feb-21 20:29N 66°22' E 012°21'0 0.0
2017-Feb-21 19:29N 66°22' E 012°21'0 0.0
2017-Feb-21 18:29N 66°22' E 012°21'0 0.0
2017-Feb-21 17:29N 66°22' E 012°21'0 0.0
2017-Feb-21 16:29N 66°22' E 012°21'3 0.4
2017-Feb-21 09:32N 66°23' E 012°28'1 0.6
2017-Feb-21 07:06N 66°24' E 012°29'1 2.1
2017-Feb-21 06:31N 66°23' E 012°27'2 0.2
2017-Feb-20 19:04N 66°22' E 012°21'0 0.0
2017-Feb-20 18:28N 66°22' E 012°21'0 0.0
2017-Feb-20 17:28N 66°22' E 012°21'0 0.0
2017-Feb-20 16:28N 66°22' E 012°21'1 0.7
2017-Feb-20 15:32N 66°22' E 012°23'1 0.6
2017-Feb-20 14:32N 66°22' E 012°23'1 0.8
2017-Feb-20 13:32N 66°22' E 012°25'1 0.8
2017-Feb-20 12:10N 66°21' E 012°24'1 0.4
2017-Feb-20 09:04N 66°22' E 012°23'1 1.7
2017-Feb-20 08:32N 66°22' E 012°25'1 0.7
2017-Feb-20 06:33N 66°22' E 012°22'0 0.0
2017-Feb-18 17:25N 66°22' E 012°21'0 0.0
2017-Feb-18 16:31N 66°22' E 012°21'  

Dump ship's entire track history